Time;durP1;ratioP1;P1;durP2;ratioP2;P2;SDS_P1;SDS_P2;PMS_P1;PMS_P2;Temp;Humidity;BMP_temperature;BMP_pressure;BME280_temperature;BME280_humidity;BME280_pressure;Samples;Min_cycle;Max_cycle;Signal;HPM_P1;HPM_P2
2023/01/26 00:01:43;;;;;;;;;;;1.70;99.90;;;;;;4997933;28;20007;-68
2023/01/26 00:04:09;;;;;;;;;;;;;;;;;;5031980;28;20294;-68
2023/01/26 00:06:35;;;;;;;;;;;1.50;99.90;;;;;;5014055;28;19939;-68
2023/01/26 00:09:01;;;;;;;;;;;;;;;;;;5014555;28;20252;-69
2023/01/26 00:11:27;;;;;;;;;;;;;;;;;;5014607;28;19917;-70
2023/01/26 00:13:54;;;;;;;;;;;1.60;99.90;;;;;;5014415;28;19940;-68
2023/01/26 00:16:19;;;;;;;;;;;1.60;99.90;;;;;;5031584;28;19917;-69
2023/01/26 00:18:45;;;;;;;;;;;;;;;;;;5014787;28;20078;-69
2023/01/26 00:21:11;;;;;;;;;;;;;;;;;;5035618;28;19928;-70
2023/01/26 00:23:37;;;;;;;;;;;;;;;;;;5017920;28;20419;-68
2023/01/26 00:26:04;;;;;;;;;;;1.80;99.90;;;;;;5001180;28;19924;-68
2023/01/26 00:28:30;;;;;;;;;;;1.70;99.90;;;;;;5017985;28;19964;-68
2023/01/26 00:30:56;;;;;;;;;;;;;;;;;;5001288;28;19964;-68
2023/01/26 00:33:22;;;;;;;;;;;;;;;;;;5017625;28;19917;-68
2023/01/26 00:35:53;;;;;;;;;;;1.60;99.90;;;;;;5035421;28;19917;-68
2023/01/26 00:38:19;;;;;;;;;;;2.00;99.90;;;;;;5017993;28;19964;-68
2023/01/26 00:40:44;;;;;;;;;;;;;;;;;;5035192;28;19964;-68
2023/01/26 00:43:10;;;;;;;;;;;;;;;;;;5017641;28;20288;-68
2023/01/26 00:45:36;;;;;;;;;;;1.90;99.90;;;;;;5017438;28;19917;-68
2023/01/26 00:48:02;;;;;;;;;;;;;;;;;;5017445;28;19921;-68
2023/01/26 00:50:27;;;;;;;;;;;1.60;99.90;;;;;;5035288;28;19917;-68
2023/01/26 00:52:53;;;;;;;;;;;;;;;;;;5017755;28;20274;-69
2023/01/26 00:55:19;;;;;;;;;;;;;;;;;;5000679;28;19966;-68
2023/01/26 00:57:45;;;;;;;;;;;2.10;99.90;;;;;;5035029;28;19917;-68
2023/01/26 01:00:15;;;;;;;;;;;1.70;99.90;;;;;;5017079;28;19917;-67
2023/01/26 01:02:41;;;;;;;;;;;1.80;99.90;;;;;;5035251;28;20389;-68
2023/01/26 01:05:07;;;;;;;;;;;;;;;;;;5034927;28;19921;-68
2023/01/26 01:07:33;;;;;;;;;;;1.90;99.90;;;;;;5016951;28;19924;-68
2023/01/26 01:09:59;;;;;;;;;;;;;;;;;;5034867;28;19954;-69
2023/01/26 01:12:25;;;;;;;;;;;;;;;;;;5034845;28;19992;-68
2023/01/26 01:14:51;;;;;;;;;;;;;;;;;;5034713;28;19917;-69
2023/01/26 01:17:16;;;;;;;;;;;;;;;;;;5016612;28;20367;-68
2023/01/26 01:19:42;;;;;;;;;;;1.90;99.90;;;;;;5016750;28;19967;-68
2023/01/26 01:22:07;;;;;;;;;;;2.00;99.90;;;;;;5017196;28;19921;-68
2023/01/26 01:24:34;;;;;;;;;;;;;;;;;;5000491;28;19957;-69
2023/01/26 01:27:00;;;;;;;;;;;;;;;;;;5034292;28;19917;-68
2023/01/26 01:29:25;;;;;;;;;;;;;;;;;;5034093;28;19917;-71
2023/01/26 01:31:51;;;;;;;;;;;;;;;;;;5034250;28;19917;-67
2023/01/26 01:34:17;;;;;;;;;;;1.80;99.90;;;;;;5034448;28;20358;-68
2023/01/26 01:36:42;;;;;;;;;;;1.90;99.90;;;;;;4999999;28;19917;-68
2023/01/26 01:39:08;;;;;;;;;;;;;;;;;;5016359;28;19992;-69
2023/01/26 01:41:34;;;;;;;;;;;;;;;;;;5034378;28;20383;-70
2023/01/26 01:44:00;;;;;;;;;;;;;;;;;;5016484;28;20007;-68
2023/01/26 01:46:34;;;;;;;;;;;1.60;99.90;;;;;;5016308;28;19978;-68
2023/01/26 01:49:20;;;;;;;;;;;1.90;99.90;;;;;;5016597;28;19928;-68
2023/01/26 01:52:06;;;;;;;;;;;2.00;99.90;;;;;;5026489;28;19924;-68
2023/01/26 01:54:33;;;;;;;;;;;1.70;99.90;;;;;;5032758;28;20271;-69
2023/01/26 01:56:59;;;;;;;;;;;;;;;;;;5015914;28;19928;-68
2023/01/26 01:59:25;;;;;;;;;;;;;;;;;;5034011;28;19917;-68
2023/01/26 02:01:51;;;;;;;;;;;1.70;99.90;;;;;;4999789;28;20282;-68
2023/01/26 02:04:17;;;;;;;;;;;;;;;;;;5016146;28;19923;-68
2023/01/26 02:06:47;;;;;;;;;;;1.90;99.90;;;;;;5015618;28;19917;-68
2023/01/26 02:10:17;;;;;;;;;;;1.90;99.90;;;;;;5033673;28;19924;-68
2023/01/26 02:11:59;;;;;;;;;;;;;;;;;;5016058;28;19924;-68
2023/01/26 02:14:25;;;;;;;;;;;1.80;99.90;;;;;;4999518;28;19944;-68
2023/01/26 02:16:51;;;;;;;;;;;2.00;99.90;;;;;;5033501;28;19924;-68
2023/01/26 02:19:17;;;;;;;;;;;;;;;;;;5034338;28;19921;-68
2023/01/26 02:21:43;;;;;;;;;;;;;;;;;;5033377;28;19932;-68
2023/01/26 02:24:12;;;;;;;;;;;1.90;99.90;;;;;;5016075;28;19924;-68
2023/01/26 02:26:38;;;;;;;;;;;1.90;99.90;;;;;;5033263;28;19917;-67
2023/01/26 02:29:07;;;;;;;;;;;2.00;99.90;;;;;;5015629;28;19917;-68
2023/01/26 02:31:33;;;;;;;;;;;;;;;;;;5033244;28;20374;-69
2023/01/26 02:33:58;;;;;;;;;;;1.90;99.90;;;;;;5033777;28;19985;-68
2023/01/26 02:36:29;;;;;;;;;;;1.90;99.90;;;;;;5015190;28;19917;-68
2023/01/26 02:38:54;;;;;;;;;;;2.00;99.90;;;;;;5033122;28;19917;-67
2023/01/26 02:44:07;;;;;;;;;;;1.80;99.90;;;;;;5015290;28;19925;-68
2023/01/26 02:46:33;;;;;;;;;;;;;;;;;;5015677;28;19929;-69
2023/01/26 02:51:43;;;;;;;;;;;2.30;99.90;;;;;;5015168;28;20382;-68
2023/01/26 02:55:21;;;;;;;;;;;;;;;;;;5033081;28;19917;-68
2023/01/26 02:56:54;;;;;;;;;;;1.90;99.90;;;;;;5014758;28;19917;-68
2023/01/26 02:59:20;;;;;;;;;;;;;;;;;;5015000;28;20338;-68
2023/01/26 03:01:47;;;;;;;;;;;2.20;99.90;;;;;;5032844;28;19928;-68
2023/01/26 03:04:12;;;;;;;;;;;2.10;99.90;;;;;;5014853;28;20012;-67
2023/01/26 03:06:38;;;;;;;;;;;2.20;99.90;;;;;;5014979;28;19964;-69
2023/01/26 03:09:04;;;;;;;;;;;;;;;;;;5032688;28;19917;-68
2023/01/26 03:11:40;;;;;;;;;;;2.30;99.90;;;;;;5032687;28;19917;-68
2023/01/26 03:14:06;;;;;;;;;;;;;;;;;;5032539;28;19929;-68
2023/01/26 03:16:32;;;;;;;;;;;;;;;;;;5032427;28;19921;-70
2023/01/26 03:27:27;;;;;;;;;;;2.40;99.90;;;;;;5014368;28;19923;-68
2023/01/26 03:29:53;;;;;;;;;;;;;;;;;;5014616;28;19921;-68
2023/01/26 03:32:18;;;;;;;;;;;2.20;99.90;;;;;;4998240;28;19924;-67
2023/01/26 03:34:44;;;;;;;;;;;2.20;99.90;;;;;;4998156;28;19984;-68
2023/01/26 03:37:10;;;;;;;;;;;;;;;;;;5031939;28;20322;-69
2023/01/26 03:56:13;;;;;;;;;;;;;;;;;;5018138;28;20429;-72
2023/01/26 03:58:39;;;;;;;;;;;;;;;;;;5036347;28;19917;-72
2023/01/26 04:01:05;;;;;;;;;;;;;;;;;;5036818;28;19975;-71
2023/01/26 04:09:00;;;;;;;;;;;2.60;99.90;;;;;;5018198;28;20011;-68
2023/01/26 04:11:26;;;;;;;;;;;;;;;;;;5018282;28;19968;-70
2023/01/26 04:22:05;;;;;;;;;;;2.60;99.90;;;;;;5017935;28;19967;-69
2023/01/26 04:24:31;;;;;;;;;;;;;;;;;;5017938;28;19921;-69
2023/01/26 04:26:57;;;;;;;;;;;;;;;;;;5017764;28;20011;-68
2023/01/26 04:29:23;;;;;;;;;;;;;;;;;;5001743;28;19921;-70
2023/01/26 04:31:49;;;;;;;;;;;;;;;;;;5035676;28;19924;-70
2023/01/26 04:34:15;;;;;;;;;;;;;;;;;;5017804;28;19924;-69
2023/01/26 04:36:41;;;;;;;;;;;2.40;99.90;;;;;;5035222;28;19917;-68
2023/01/26 04:41:33;;;;;;;;;;;2.70;99.90;;;;;;5092509;22;19928;-69
2023/01/26 04:43:58;;;;;;;;;;;2.60;99.90;;;;;;5057372;28;19920;-70
2023/01/26 04:46:24;;;;;;;;;;;;;;;;;;5057328;28;19924;-70
2023/01/26 04:48:50;;;;;;;;;;;;;;;;;;5057280;28;19963;-70
2023/01/26 04:51:16;;;;;;;;;;;;;;;;;;5057443;28;19916;-70
2023/01/26 04:53:41;;;;;;;;;;;2.60;99.90;;;;;;5057293;28;19962;-70
2023/01/26 04:56:12;;;;;;;;;;;3.20;99.90;;;;;;5040132;28;20530;-70
2023/01/26 04:58:39;;;;;;;;;;;;;;;;;;5040480;28;19969;-70
2023/01/26 05:01:05;;;;;;;;;;;;;;;;;;5040183;28;19921;-70
2023/01/26 05:03:31;;;;;;;;;;;;;;;;;;5040683;28;19920;-70
2023/01/26 05:05:57;;;;;;;;;;;;;;;;;;5074036;28;19924;-70
2023/01/26 05:08:22;;;;;;;;;;;2.90;99.90;;;;;;5056913;28;19917;-70
2023/01/26 05:10:48;;;;;;;;;;;3.00;99.90;;;;;;5040367;28;19920;-70
2023/01/26 05:13:13;;;;;;;;;;;2.60;99.90;;;;;;5074834;28;20419;-70
2023/01/26 05:15:39;;;;;;;;;;;;;;;;;;5056656;28;20420;-70
2023/01/26 05:18:05;;;;;;;;;;;2.80;99.90;;;;;;5056624;28;19920;-70
2023/01/26 05:20:31;;;;;;;;;;;2.80;99.90;;;;;;5039968;28;19917;-70
2023/01/26 05:22:57;;;;;;;;;;;2.80;99.90;;;;;;5074554;28;19927;-70
2023/01/26 05:25:22;;;;;;;;;;;3.00;99.90;;;;;;5039656;28;19987;-70
2023/01/26 05:27:48;;;;;;;;;;;;;;;;;;5056749;28;19916;-70
2023/01/26 05:30:14;;;;;;;;;;;;;;;;;;5056387;28;19917;-70
2023/01/26 05:32:40;;;;;;;;;;;;;;;;;;5056320;28;19973;-70
2023/01/26 05:35:06;;;;;;;;;;;3.40;99.90;;;;;;5056161;28;20267;-70
2023/01/26 05:37:32;;;;;;;;;;;3.60;99.90;;;;;;5056156;28;19920;-70
2023/01/26 05:39:58;;;;;;;;;;;3.30;99.90;;;;;;5074113;28;19960;-70
2023/01/26 05:42:24;;;;;;;;;;;;;;;;;;5073923;28;19920;-70
2023/01/26 05:44:49;;;;;;;;;;;;;;;;;;5056524;28;19923;-70
2023/01/26 05:47:15;;;;;;;;;;;;;;;;;;5056012;28;19922;-70
2023/01/26 05:49:42;;;;;;;;;;;;;;;;;;5056043;28;19917;-70
2023/01/26 05:52:08;;;;;;;;;;;;;;;;;;5056059;28;19920;-70
2023/01/26 05:54:34;;;;;;;;;;;;;;;;;;5074047;28;19923;-70
2023/01/26 05:57:00;;;;;;;;;;;;;;;;;;5073711;28;19920;-70
2023/01/26 05:59:25;;;;;;;;;;;3.60;99.90;;;;;;5055720;28;19917;-70
2023/01/26 06:01:51;;;;;;;;;;;4.20;99.90;;;;;;5055856;28;19975;-70
2023/01/26 06:04:17;;;;;;;;;;;;;;;;;;5039515;28;20392;-71
2023/01/26 06:06:43;;;;;;;;;;;;;;;;;;5055711;28;19916;-70
2023/01/26 06:09:09;;;;;;;;;;;;;;;;;;5073626;28;19972;-70
2023/01/26 06:11:34;;;;;;;;;;;3.90;99.90;;;;;;5055942;28;20006;-70
2023/01/26 06:14:00;;;;;;;;;;;;;;;;;;5055920;28;19924;-70
2023/01/26 06:16:26;;;;;;;;;;;;;;;;;;5054272;28;19916;-70
2023/01/26 06:18:52;;;;;;;;;;;;;;;;;;5038780;28;20412;-70
2023/01/26 06:21:18;;;;;;;;;;;;;;;;;;5055631;28;19920;-70
2023/01/26 06:23:44;;;;;;;;;;;;;;;;;;5055361;28;20015;-70
2023/01/26 06:26:09;;;;;;;;;;;;;;;;;;5055157;28;19923;-70
2023/01/26 06:28:35;;;;;;;;;;;;;;;;;;5038650;28;19916;-70
2023/01/26 06:31:01;;;;;;;;;;;;;;;;;;5055091;28;19917;-70
2023/01/26 06:33:27;;;;;;;;;;;;;;;;;;5055238;28;19917;-70
2023/01/26 06:35:55;;;;;;;;;;;;;;;;;;5055192;28;19916;-70
2023/01/26 06:38:22;;;;;;;;;;;;;;;;;;5055092;28;19962;-70
2023/01/26 06:40:48;;;;;;;;;;;4.70;99.90;;;;;;5054606;28;20366;-70
2023/01/26 06:43:13;;;;;;;;;;;4.80;99.90;;;;;;5038466;28;19932;-70
2023/01/26 06:45:41;;;;;;;;;;;;;;;;;;5068246;28;19923;-70
2023/01/26 06:48:07;;;;;;;;;;;;;;;;;;5075060;28;19923;-70
2023/01/26 06:50:43;;;;;;;;;;;4.50;99.90;;;;;;5074905;28;20491;-70
2023/01/26 06:53:09;;;;;;;;;;;;;;;;;;5058653;28;19916;-71
2023/01/26 06:55:35;;;;;;;;;;;;;;;;;;5044316;28;19916;-70
2023/01/26 06:58:01;;;;;;;;;;;4.50;99.90;;;;;;5037020;28;20408;-70
2023/01/26 07:00:26;;;;;;;;;;;4.40;99.90;;;;;;5020696;28;20367;-70
2023/01/26 07:02:52;;;;;;;;;;;4.30;99.90;;;;;;5059445;28;19978;-70
2023/01/26 07:05:17;;;;;;;;;;;4.70;99.90;;;;;;5032591;28;20445;-70
2023/01/26 07:07:43;;;;;;;;;;;4.70;99.90;;;;;;5060928;28;19921;-72
2023/01/26 07:10:09;;;;;;;;;;;4.50;99.90;;;;;;5037228;28;19928;-72
2023/01/26 07:12:42;;;;;;;;;;;4.70;99.90;;;;;;5041324;28;20012;-73
2023/01/26 07:15:09;;;;;;;;;;;4.30;99.90;;;;;;5035746;28;19921;-72
2023/01/26 07:17:34;;;;;;;;;;;4.30;99.90;;;;;;5057517;28;19968;-72
2023/01/26 07:20:00;;;;;;;;;;;4.70;99.90;;;;;;5043165;28;20416;-72
2023/01/26 07:22:25;;;;;;;;;;;4.70;99.90;;;;;;5039424;28;19925;-73
2023/01/26 07:24:51;;;;;;;;;;;4.00;99.90;;;;;;5039913;28;19929;-72
2023/01/26 07:27:16;;;;;;;;;;;4.50;99.90;;;;;;5017300;28;19920;-70
2023/01/26 07:29:42;;;;;;;;;;;4.40;99.90;;;;;;5040376;28;19921;-69
2023/01/26 07:32:07;;;;;;;;;;;4.10;99.90;;;;;;5040090;28;20377;-72
2023/01/26 07:34:33;;;;;;;;;;;4.30;99.90;;;;;;5039355;28;19978;-73
2023/01/26 07:36:58;;;;;;;;;;;4.30;99.90;;;;;;5039974;28;20041;-73
2023/01/26 07:39:24;;;;;;;;;;;;;;;;;;5039134;28;19927;-72
2023/01/26 07:41:50;;;;;;;;;;;4.40;99.90;;;;;;5056279;28;20543;-70
2023/01/26 07:44:15;;;;;;;;;;;4.50;99.90;;;;;;5038282;28;19917;-71
2023/01/26 07:46:41;;;;;;;;;;;4.80;99.90;;;;;;5042781;28;19920;-71
2023/01/26 07:49:06;;;;;;;;;;;4.50;99.90;;;;;;5061694;28;19978;-71
2023/01/26 07:51:32;;;;;;;;;;;4.90;99.90;;;;;;5033604;28;19917;-71
2023/01/26 07:53:58;;;;;;;;;;;4.80;99.90;;;;;;5043012;28;19917;-71
2023/01/26 07:56:24;;;;;;;;;;;;;;;;;;5067108;28;19917;-70
2023/01/26 07:58:50;;;;;;;;;;;;;;;;;;5049353;28;19925;-71
2023/01/26 08:01:16;;;;;;;;;;;;;;;;;;5053690;28;19920;-71
2023/01/26 08:03:44;;;;;;;;;;;4.70;99.90;;;;;;5041432;28;20302;-70
2023/01/26 08:06:10;;;;;;;;;;;4.50;99.90;;;;;;5037147;28;19926;-71
2023/01/26 08:08:38;;;;;;;;;;;;;;;;;;5029350;28;20004;-71
2023/01/26 08:11:04;;;;;;;;;;;;;;;;;;5051188;28;19921;-71
2023/01/26 08:13:30;;;;;;;;;;;;;;;;;;5053269;28;20378;-71
2023/01/26 08:16:00;;;;;;;;;;;4.40;99.90;;;;;;5032211;28;19921;-72
2023/01/26 08:18:26;;;;;;;;;;;4.50;99.90;;;;;;5033186;28;20015;-70
2023/01/26 08:20:52;;;;;;;;;;;4.80;99.90;;;;;;5032887;28;20012;-70
2023/01/26 08:23:18;;;;;;;;;;;4.50;99.90;;;;;;5030582;28;19979;-70
2023/01/26 08:25:44;;;;;;;;;;;5.10;99.90;;;;;;5033301;28;19920;-71
2023/01/26 08:28:10;;;;;;;;;;;;;;;;;;5026136;28;19927;-70
2023/01/26 08:30:36;;;;;;;;;;;;;;;;;;5016418;28;20059;-70
2023/01/26 08:33:02;;;;;;;;;;;;;;;;;;5037667;28;19968;-70
2023/01/26 08:35:27;;;;;;;;;;;;;;;;;;5041590;28;20003;-72
2023/01/26 08:37:53;;;;;;;;;;;4.50;99.90;;;;;;5053170;28;20015;-72
2023/01/26 08:40:19;;;;;;;;;;;4.80;99.90;;;;;;5027279;28;19921;-71
2023/01/26 08:42:45;;;;;;;;;;;;;;;;;;5029780;28;20362;-71
2023/01/26 08:45:10;;;;;;;;;;;;;;;;;;5036843;28;19928;-71
2023/01/26 08:47:36;;;;;;;;;;;;;;;;;;5036754;28;19920;-71
2023/01/26 08:50:02;;;;;;;;;;;;;;;;;;5037182;28;19921;-71
2023/01/26 08:52:28;;;;;;;;;;;4.80;99.90;;;;;;5044014;28;19920;-71
2023/01/26 08:54:53;;;;;;;;;;;4.90;99.90;;;;;;5053021;28;20297;-71
2023/01/26 08:57:20;;;;;;;;;;;;;;;;;;5037837;28;20015;-71
2023/01/26 08:59:46;;;;;;;;;;;5.40;99.90;;;;;;5049269;28;20309;-71
2023/01/26 09:02:12;;;;;;;;;;;;;;;;;;5075021;28;19928;-71
2023/01/26 09:04:37;;;;;;;;;;;;;;;;;;5033302;28;19975;-70
2023/01/26 09:07:04;;;;;;;;;;;;;;;;;;5029387;28;20490;-71
2023/01/26 09:09:30;;;;;;;;;;;;;;;;;;5028907;28;20361;-71
2023/01/26 09:11:56;;;;;;;;;;;;;;;;;;5045787;28;19955;-71
2023/01/26 09:14:22;;;;;;;;;;;;;;;;;;5049479;28;19924;-71
2023/01/26 09:16:48;;;;;;;;;;;;;;;;;;5029734;28;19982;-71
2023/01/26 09:19:14;;;;;;;;;;;5.70;99.90;;;;;;5051958;28;19924;-71
2023/01/26 09:21:39;;;;;;;;;;;5.50;99.90;;;;;;5056361;28;20019;-71
2023/01/26 09:24:05;;;;;;;;;;;5.60;99.90;;;;;;5030930;28;20011;-71
2023/01/26 09:26:31;;;;;;;;;;;;;;;;;;5022237;28;19968;-71
2023/01/26 09:28:57;;;;;;;;;;;;;;;;;;5036396;28;19978;-72
2023/01/26 09:31:23;;;;;;;;;;;;;;;;;;5019176;28;19939;-72
2023/01/26 09:33:49;;;;;;;;;;;5.90;99.90;;;;;;5091025;28;19916;-71
2023/01/26 09:36:15;;;;;;;;;;;6.30;99.90;;;;;;5038335;28;19916;-71
2023/01/26 09:38:40;;;;;;;;;;;6.30;99.90;;;;;;5074153;28;19923;-71
2023/01/26 09:41:06;;;;;;;;;;;;;;;;;;5056077;28;19966;-72
2023/01/26 09:43:33;;;;;;;;;;;;;;;;;;5045879;28;19960;-71
2023/01/26 09:46:11;;;;;;;;;;;6.50;99.90;;;;;;5053598;28;19998;-72
2023/01/26 09:48:49;;;;;;;;;;;6.20;99.90;;;;;;5049537;28;19924;-71
2023/01/26 09:51:15;;;;;;;;;;;;;;;;;;5062384;28;19916;-71
2023/01/26 09:53:41;;;;;;;;;;;;;;;;;;5055683;28;19923;-71
2023/01/26 09:56:07;;;;;;;;;;;;;;;;;;5069943;28;19947;-71
2023/01/26 09:58:39;;;;;;;;;;;6.80;99.90;;;;;;5035834;28;19917;-72
2023/01/26 10:01:12;;;;;;;;;;;6.80;99.90;;;;;;5035266;28;20003;-71
2023/01/26 10:03:56;;;;;;;;;;;6.70;99.90;;;;;;5047927;28;20366;-71
2023/01/26 10:06:22;;;;;;;;;;;;;;;;;;5036428;28;19920;-71
2023/01/26 10:08:50;;;;;;;;;;;;;;;;;;5052708;28;19924;-71
2023/01/26 10:11:16;;;;;;;;;;;;;;;;;;5035533;28;19916;-71
2023/01/26 10:13:47;;;;;;;;;;;7.20;99.90;;;;;;5044836;28;20060;-71
2023/01/26 10:16:13;;;;;;;;;;;7.30;99.90;;;;;;5055102;28;20502;-71
2023/01/26 10:18:46;;;;;;;;;;;8.40;99.90;;;;;;5066877;28;19916;-71
2023/01/26 10:21:12;;;;;;;;;;;7.00;99.90;;;;;;5051537;28;19939;-72
2023/01/26 10:23:41;;;;;;;;;;;7.30;99.90;;;;;;5073540;28;19933;-72
2023/01/26 10:26:14;;;;;;;;;;;7.30;99.90;;;;;;5071146;28;19917;-71
2023/01/26 10:28:40;;;;;;;;;;;7.40;99.90;;;;;;5027614;28;20004;-72
2023/01/26 10:31:11;;;;;;;;;;;7.40;99.90;;;;;;5035117;28;20342;-71
2023/01/26 10:33:39;;;;;;;;;;;7.30;99.90;;;;;;5034554;28;19959;-71
2023/01/26 10:36:05;;;;;;;;;;;7.40;99.90;;;;;;5034948;28;20389;-71
2023/01/26 10:38:31;;;;;;;;;;;;;;;;;;5052909;28;20026;-72
2023/01/26 10:41:02;;;;;;;;;;;7.80;99.90;;;;;;5037249;22;20259;-70
2023/01/26 10:43:28;;;;;;;;;;;7.90;99.90;;;;;;4995636;28;19972;-70
2023/01/26 10:45:59;;;;;;;;;;;;;;;;;;4995174;28;19921;-70
2023/01/26 10:48:25;;;;;;;;;;;;;;;;;;4995049;28;20414;-71
2023/01/26 10:50:51;;;;;;;;;;;8.00;99.90;;;;;;4994807;28;19924;-69
2023/01/26 10:53:22;;;;;;;;;;;8.00;99.90;;;;;;4995253;28;20375;-70
2023/01/26 10:56:02;;;;;;;;;;;8.80;99.90;;;;;;5012337;28;19925;-71
2023/01/26 10:58:30;;;;;;;;;;;;;;;;;;4995283;28;19991;-70
2023/01/26 11:00:56;;;;;;;;;;;;;;;;;;5012185;28;19976;-70
2023/01/26 11:03:22;;;;;;;;;;;;;;;;;;5012507;28;20071;-71
2023/01/26 11:05:47;;;;;;;;;;;;;;;;;;4993958;28;20319;-72
2023/01/26 11:08:13;;;;;;;;;;;;;;;;;;5012923;28;19918;-70
2023/01/26 11:10:39;;;;;;;;;;;;;;;;;;4994536;28;19918;-71
2023/01/26 11:13:06;;;;;;;;;;;;;;;;;;4995284;28;19925;-71
2023/01/26 11:15:32;;;;;;;;;;;;;;;;;;4994669;28;19975;-70
2023/01/26 11:17:58;;;;;;;;;;;;;;;;;;4994068;28;20339;-70
2023/01/26 11:20:25;;;;;;;;;;;;;;;;;;4979613;28;20032;-70
2023/01/26 11:22:51;;;;;;;;;;;;;;;;;;5020433;28;19922;-70
2023/01/26 11:25:17;;;;;;;;;;;;;;;;;;4994601;28;19925;-72
2023/01/26 11:27:43;;;;;;;;;;;;;;;;;;4978119;28;20311;-71
2023/01/26 11:30:08;;;;;;;;;;;;;;;;;;5012340;28;19918;-71
2023/01/26 11:32:34;;;;;;;;;;;;;;;;;;4978611;28;19924;-71
2023/01/26 11:35:00;;;;;;;;;;;;;;;;;;4993816;28;20264;-71
2023/01/26 11:37:26;;;;;;;;;;;;;;;;;;4978365;28;19921;-71
2023/01/26 11:39:52;;;;;;;;;;;;;;;;;;4992611;28;19921;-71
2023/01/26 11:42:18;;;;;;;;;;;;;;;;;;4971768;28;20368;-71
2023/01/26 11:44:44;;;;;;;;;;;;;;;;;;4990593;28;19921;-71
2023/01/26 11:47:10;;;;;;;;;;;;;;;;;;5004413;28;19926;-69
2023/01/26 11:49:36;;;;;;;;;;;;;;;;;;4968317;28;20353;-71
2023/01/26 11:52:02;;;;;;;;;;;;;;;;;;4990568;28;20415;-71
2023/01/26 11:54:28;;;;;;;;;;;;;;;;;;4971723;28;19928;-72
2023/01/26 11:56:54;;;;;;;;;;;;;;;;;;4990042;28;19932;-71
2023/01/26 11:59:20;;;;;;;;;;;;;;;;;;4973519;28;20302;-71
2023/01/26 12:01:45;;;;;;;;;;;;;;;;;;4973279;28;20458;-72
2023/01/26 12:04:11;;;;;;;;;;;;;;;;;;4973926;28;20335;-71
2023/01/26 12:06:37;;;;;;;;;;;;;;;;;;4969551;28;20441;-69
2023/01/26 12:09:03;;;;;;;;;;;;;;;;;;4969003;28;20383;-70
2023/01/26 12:11:29;;;;;;;;;;;;;;;;;;4972214;28;19976;-71
2023/01/26 12:13:55;;;;;;;;;;;;;;;;;;4963059;28;19980;-70
2023/01/26 12:16:21;;;;;;;;;;;;;;;;;;4990517;28;20363;-71
2023/01/26 12:18:47;;;;;;;;;;;;;;;;;;4975961;28;20391;-70
2023/01/26 12:21:13;;;;;;;;;;;;;;;;;;4996047;28;19921;-71
2023/01/26 12:23:39;;;;;;;;;;;;;;;;;;4993137;28;19925;-70
2023/01/26 12:26:05;;;;;;;;;;;;;;;;;;4977706;28;19921;-70
2023/01/26 12:28:31;;;;;;;;;;;;;;;;;;5015385;28;19928;-70
2023/01/26 12:30:57;;;;;;;;;;;;;;;;;;4981265;28;19921;-71
2023/01/26 12:33:23;;;;;;;;;;;;;;;;;;4981839;28;19921;-70
2023/01/26 12:35:51;;;;;;;;;;;;;;;;;;4980596;28;21727;-70
2023/01/26 12:38:17;;;;;;;;;;;;;;;;;;4981727;28;20382;-70
2023/01/26 12:40:43;;;;;;;;;;;;;;;;;;4980504;28;19925;-71
2023/01/26 12:43:09;;;;;;;;;;;;;;;;;;4998187;28;20442;-70
2023/01/26 12:45:35;;;;;;;;;;;;;;;;;;5014312;28;20414;-71
2023/01/26 12:48:01;;;;;;;;;;;;;;;;;;4997120;28;19928;-70
2023/01/26 12:50:27;;;;;;;;;;;;;;;;;;4997103;28;19925;-70
2023/01/26 12:52:53;;;;;;;;;;;;;;;;;;4979621;28;19922;-71
2023/01/26 12:55:18;;;;;;;;;;;;;;;;;;4980803;28;20048;-72
2023/01/26 12:57:44;;;;;;;;;;;;;;;;;;4980662;28;20520;-70
2023/01/26 13:00:11;;;;;;;;;;;;;;;;;;4980022;28;19979;-70
2023/01/26 13:02:37;;;;;;;;;;;;;;;;;;4996825;28;20038;-70
2023/01/26 13:05:03;;;;;;;;;;;;;;;;;;4979656;28;19965;-68
2023/01/26 13:07:29;;;;;;;;;;;;;;;;;;4980312;28;20434;-71
2023/01/26 13:09:55;;;;;;;;;;;;;;;;;;4996314;28;19928;-70
2023/01/26 13:12:21;;;;;;;;;;;;;;;;;;4996209;28;19997;-70
2023/01/26 13:14:46;;;;;;;;;;;;;;;;;;4996798;28;20063;-71
2023/01/26 13:17:12;;;;;;;;;;;;;;;;;;4988375;28;20389;-70
2023/01/26 13:19:38;;;;;;;;;;;;;;;;;;5012532;28;19921;-70
2023/01/26 13:22:04;;;;;;;;;;;;;;;;;;5029124;28;19917;-71
2023/01/26 13:24:30;;;;;;;;;;;;;;;;;;5034210;28;19924;-70
2023/01/26 13:26:56;;;;;;;;;;;;;;;;;;5016136;28;19928;-71
2023/01/26 13:29:22;;;;;;;;;;;;;;;;;;5016695;28;20317;-70
2023/01/26 13:31:48;;;;;;;;;;;;;;;;;;5034398;28;19917;-70
2023/01/26 13:34:14;;;;;;;;;;;;;;;;;;5016789;28;19917;-71
2023/01/26 13:36:39;;;;;;;;;;;;;;;;;;5016252;28;19917;-71
2023/01/26 13:39:05;;;;;;;;;;;;;;;;;;5000144;28;19917;-71
2023/01/26 13:41:31;;;;;;;;;;;;;;;;;;5034080;28;19925;-70
2023/01/26 13:43:57;;;;;;;;;;;;;;;;;;5034350;28;19924;-69
2023/01/26 13:46:24;;;;;;;;;;;;;;;;;;5033893;28;19917;-69
2023/01/26 13:48:50;;;;;;;;;;;;;;;;;;5034044;28;19924;-69
2023/01/26 13:51:16;;;;;;;;;;;;;;;;;;5016260;28;19917;-69
2023/01/26 13:53:41;;;;;;;;;;;;;;;;;;4999624;28;20036;-70
2023/01/26 13:56:07;;;;;;;;;;;;;;;;;;5015934;28;19917;-69
2023/01/26 13:58:33;;;;;;;;;;;;;;;;;;4999692;28;19967;-70
2023/01/26 14:00:59;;;;;;;;;;;;;;;;;;5033818;28;20286;-70
2023/01/26 14:03:25;;;;;;;;;;;;;;;;;;5033898;28;19960;-70
2023/01/26 14:05:51;;;;;;;;;;;;;;;;;;5033589;28;20000;-69
2023/01/26 14:08:17;;;;;;;;;;;;;;;;;;4991415;28;19921;-69
2023/01/26 14:10:43;;;;;;;;;;;;;;;;;;5013995;28;20004;-69
2023/01/26 14:13:09;;;;;;;;;;;;;;;;;;4996679;28;19917;-69
2023/01/26 14:15:35;;;;;;;;;;;;;;;;;;5013548;28;20366;-69
2023/01/26 14:18:00;;;;;;;;;;;;;;;;;;4980125;28;19917;-70
2023/01/26 14:20:26;;;;;;;;;;;;;;;;;;4997297;28;19925;-70
2023/01/26 14:22:52;;;;;;;;;;;;;;;;;;5015550;28;20386;-70
2023/01/26 14:25:18;;;;;;;;;;;;;;;;;;5015236;28;19917;-70
2023/01/26 14:27:44;;;;;;;;;;;;;;;;;;5015628;28;19923;-70
2023/01/26 14:30:11;;;;;;;;;;;;;;;;;;4999123;28;20396;-70
2023/01/26 14:32:36;;;;;;;;;;;;;;;;;;5033236;28;19928;-70
2023/01/26 14:35:02;;;;;;;;;;;;;;;;;;5033138;28;19917;-70
2023/01/26 14:37:28;;;;;;;;;;;;;;;;;;5014320;28;19928;-70
2023/01/26 14:39:54;;;;;;;;;;;;;;;;;;5032844;28;19968;-70
2023/01/26 14:42:20;;;;;;;;;;;;;;;;;;5015387;28;19917;-69
2023/01/26 14:44:46;;;;;;;;;;;;;;;;;;5015356;28;19928;-69
2023/01/26 14:47:12;;;;;;;;;;;;;;;;;;4998448;28;20256;-69
2023/01/26 14:49:41;;;;;;;;;;;;;;;;;;5014986;28;19921;-70
2023/01/26 14:52:07;;;;;;;;;;;;;;;;;;5015118;28;19921;-69
2023/01/26 14:54:35;;;;;;;;;;;;;;;;;;5014981;28;19917;-69
2023/01/26 14:57:01;;;;;;;;;;;;;;;;;;4997948;28;19960;-69
2023/01/26 14:59:27;;;;;;;;;;;;;;;;;;4995254;28;20342;-69
2023/01/26 15:01:53;;;;;;;;;;;;;;;;;;4995455;28;20007;-70
2023/01/26 15:04:19;;;;;;;;;;;;;;;;;;4995109;28;20004;-70
2023/01/26 15:06:44;;;;;;;;;;;;;;;;;;4995074;28;20388;-69
2023/01/26 15:09:10;;;;;;;;;;;;;;;;;;4995312;28;19923;-69
2023/01/26 15:14:21;;;;;;;;;;;;;;;;;;5012783;28;19918;-70
2023/01/26 15:16:47;;;;;;;;;;;;;;;;;;5012238;28;19917;-70
2023/01/26 15:19:13;;;;;;;;;;;;;;;;;;4978792;28;19970;-71
2023/01/26 15:21:39;;;;;;;;;;;;;;;;;;5005930;28;20332;-71
2023/01/26 15:24:05;;;;;;;;;;;;;;;;;;5014655;28;19968;-71
2023/01/26 15:26:31;;;;;;;;;;;;;;;;;;5032021;28;19975;-71
2023/01/26 15:28:57;;;;;;;;;;;;;;;;;;5032359;28;19971;-71
2023/01/26 15:31:22;;;;;;;;;;;;;;;;;;5014447;28;19917;-71
2023/01/26 15:33:48;;;;;;;;;;;;;;;;;;5014476;28;19952;-71
2023/01/26 15:36:14;;;;;;;;;;;;;;;;;;5012440;28;19917;-71
2023/01/26 15:38:40;;;;;;;;;;;;;;;;;;4993961;28;20391;-71
2023/01/26 15:41:06;;;;;;;;;;;;;;;;;;4977898;28;19925;-71
2023/01/26 15:43:32;;;;;;;;;;;;;;;;;;4990552;28;20012;-71
2023/01/26 15:46:00;;;;;;;;;;;;;;;;;;5008632;28;19917;-70
2023/01/26 15:48:30;;;;;;;;;;;;;;;;;;4974967;28;19988;-71
2023/01/26 15:50:56;;;;;;;;;;;;;;;;;;4991014;28;19936;-70
2023/01/26 15:53:22;;;;;;;;;;;;;;;;;;4991194;28;19917;-71
2023/01/26 15:55:51;;;;;;;;;;;;;;;;;;4991022;28;20389;-70
2023/01/26 15:58:17;;;;;;;;;;;;;;;;;;4975000;28;19925;-69
2023/01/26 16:00:43;;;;;;;;;;;;;;;;;;4992217;28;20275;-70
2023/01/26 16:03:09;;;;;;;;;;;;;;;;;;4977380;28;20319;-71
2023/01/26 16:05:35;;;;;;;;;;;;;;;;;;4992878;28;19918;-71
2023/01/26 16:08:01;;;;;;;;;;;;;;;;;;5012351;28;19918;-72
2023/01/26 16:10:27;;;;;;;;;;;;;;;;;;4994521;28;19925;-71
2023/01/26 16:12:53;;;;;;;;;;;;;;;;;;4994680;28;19917;-71
2023/01/26 16:15:18;;;;;;;;;;;;;;;;;;4994971;28;19921;-71
2023/01/26 16:17:44;;;;;;;;;;;;;;;;;;4994677;28;19969;-71
2023/01/26 16:20:10;;;;;;;;;;;;;;;;;;4978164;28;19975;-71
2023/01/26 16:22:36;;;;;;;;;;;;;;;;;;5013061;28;20332;-70
2023/01/26 16:25:02;;;;;;;;;;;;;;;;;;5031643;28;19917;-71
2023/01/26 16:27:28;;;;;;;;;;;;;;;;;;5013779;28;20018;-71
2023/01/26 16:29:54;;;;;;;;;;;;;;;;;;5013786;28;20066;-71
2023/01/26 16:32:20;;;;;;;;;;;;;;;;;;5013953;28;20282;-71
2023/01/26 16:34:46;;;;;;;;;;;;;;;;;;4997539;28;19917;-71
2023/01/26 16:37:11;;;;;;;;;;;;;;;;;;5013631;28;19917;-70
2023/01/26 16:39:37;;;;;;;;;;;;;;;;;;4998017;28;20391;-71
2023/01/26 16:42:03;;;;;;;;;;;;;;;;;;5071203;22;19921;-71